In Rescue
 
Open Full Screen Window  High Contrast Mode
January 28, 2020 10:59 PM CST
Weather Information
Wind Direction
  ---
Wind Speed
  00 kt (0 mph)
Wind Gust
  00 kt (0 mph)
Altimeter
30.15 in
Visibility
7 SM
Temperature
-09° C
16° F
Dewpoint
-11° C
12° F
Humidity
86%
1hr Rain Fall
00.00 in.
24hr Rain Fall
00.00 in.
Sky Condition
Overcast @ 900 ft
IFR

METAR KGYL 290459Z AUTO 00000KT 7SM OVC009 M09/M11 A3015 RMK AO2

FAA Disclaimer: The data displayed is for advisory purposes only and is not to be used for flight planning or operations.